Terminal Aerodrome Forecast
Issued by NWS Charleston, WV

Current Version | Previous Version | Text Only | Print | Product List | Glossary On
Versions: 1 2 3 4 5 6 7 8 9 10 11 12 13 14 15 16 17 18 19 20 21 22 23
000
FTUS41 KRLX 190800 AAA
TAFCRW
TAF AMD
KCRW 190829Z 1908/2006 00000KT 2SM BR SCT001 SCT040
      TEMPO 1908/1912 1/2SM FG BKN001
     FM191300 00000KT 4SM BR SCT015
     FM191400 00000KT P6SM SCT025
      TEMPO 1914/1917 BKN025
     FM191700 11003KT P6SM SCT035=

USA.gov is the U.S. government's official web portal to all federal, state and local government web resources and services.